Time;durP1;ratioP1;P1;durP2;ratioP2;P2;SDS_P1;SDS_P2;PMS_P1;PMS_P2;Temp;Humidity;BMP_temperature;BMP_pressure;BME280_temperature;BME280_humidity;BME280_pressure;Samples;Min_cycle;Max_cycle;Signal;HPM_P1;HPM_P2
2023/04/12 00:02:11;;;;;;;10.30;8.00;;;;;;;10.37;100.00;98532.31;5052522;28;20037;-71
2023/04/12 00:04:37;;;;;;;9.82;8.82;;;;;;;9.52;100.00;98408.84;5034643;28;20458;-71
2023/04/12 00:07:02;;;;;;;10.13;8.55;;;;;;;9.90;100.00;98442.47;5052172;28;20427;-71
2023/04/12 00:09:29;;;;;;;10.18;8.35;;;;;;;9.96;100.00;98474.31;5052288;28;20032;-71
2023/04/12 00:11:56;;;;;;;10.80;8.65;;;;;;;9.91;100.00;98449.16;5034599;28;20041;-70
2023/04/12 00:14:21;;;;;;;10.07;8.40;;;;;;;9.67;100.00;98407.22;5052391;28;20032;-72
2023/04/12 00:16:47;;;;;;;10.02;9.02;;;;;;;10.29;100.00;98514.09;5052813;28;20025;-71
2023/04/12 00:19:12;;;;;;;10.82;8.63;;;;;;;10.03;100.00;98490.88;5052821;28;20043;-71
2023/04/12 00:21:38;;;;;;;9.32;8.32;;;;;;;10.39;100.00;98553.38;5051180;28;20403;-72
2023/04/12 00:24:03;;;;;;;10.57;9.25;;;;;;;9.95;100.00;98482.81;5051121;28;20082;-71
2023/04/12 00:26:29;;;;;;;10.38;9.10;;;;;;;10.03;100.00;98512.00;5051749;28;20040;-71
2023/04/12 00:28:54;;;;;;;11.48;9.77;;;;;;;10.03;100.00;98518.78;5052197;28;20106;-72
2023/04/12 00:31:20;;;;;;;10.65;9.25;;;;;;;10.27;100.00;98536.22;5052315;28;20083;-71
2023/04/12 00:33:45;;;;;;;10.95;9.15;;;;;;;10.36;100.00;98556.06;5052446;28;20031;-71
2023/04/12 00:36:11;;;;;;;16.05;9.65;;;;;;;9.74;100.00;98471.19;5051474;28;20442;-73
2023/04/12 00:38:36;;;;;;;9.75;8.73;;;;;;;10.26;100.00;98554.88;5052422;28;20029;-72
2023/04/12 00:41:02;;;;;;;11.60;8.57;;;;;;;10.28;100.00;98559.91;5051563;28;20492;-71
2023/04/12 00:43:27;;;;;;;9.82;8.63;;;;;;;10.37;100.00;98577.22;5052412;28;20472;-71
2023/04/12 00:45:55;;;;;;;10.98;8.95;;;;;;;10.33;100.00;98566.41;5050632;28;20024;-71
2023/04/12 00:48:22;;;;;;;11.55;9.18;;;;;;;10.22;100.00;98558.47;5052345;28;20044;-71
2023/04/12 00:50:47;;;;;;;10.15;9.15;;;;;;;9.73;100.00;98485.59;5051610;28;20029;-71
2023/04/12 00:53:14;;;;;;;11.30;9.63;;;;;;;9.78;100.00;98498.88;5051877;28;20070;-71
2023/04/12 00:55:44;;;;;;;10.10;9.05;;;;;;;10.29;100.00;98589.47;5051714;28;20479;-70
2023/04/12 00:58:10;;;;;;;10.27;9.23;;;;;;;9.75;100.00;98493.94;5033815;28;20053;-71
2023/04/12 01:00:36;;;;;;;9.93;8.93;;;;;;;10.00;100.00;98516.44;5051797;28;20075;-71
2023/04/12 01:03:04;;;;;;;11.35;9.30;;;;;;;10.31;100.00;98574.97;5051406;28;20480;-72
2023/04/12 01:05:34;;;;;;;10.38;9.00;;;;;;;10.30;100.00;98571.59;5033828;28;20449;-71
2023/04/12 01:08:26;;;;;;;11.35;9.98;;;;;;;10.01;100.00;98483.34;5051127;28;20033;-71
2023/04/12 01:11:09;;;;;;;;;;;;;;;10.57;100.00;98573.66;5052575;28;20052;-71
2023/04/12 01:14:03;;;;;;;10.35;9.20;;;;;;;10.40;100.00;98572.78;5051501;28;20054;-74
2023/04/12 01:16:43;;;;;;;12.15;9.93;;;;;;;10.38;100.00;98600.00;5042276;28;20071;-70
2023/04/12 01:19:18;;;;;;;12.20;10.40;;;;;;;10.39;100.00;98580.50;5051796;28;20037;-71
2023/04/12 01:22:09;;;;;;;12.35;10.70;;;;;;;10.19;100.00;98578.13;5049913;28;20040;-70
2023/04/12 01:24:47;;;;;;;11.77;10.35;;;;;;;10.25;100.00;98578.66;5033282;28;20029;-71
2023/04/12 01:27:42;;;;;;;13.15;10.35;;;;;;;10.22;100.00;98575.44;5050191;28;20083;-71
2023/04/12 01:30:12;;;;;;;11.85;9.95;;;;;;;9.62;100.00;98490.38;5066877;28;20032;-72
2023/04/12 01:32:39;;;;;;;12.35;10.85;;;;;;;9.84;100.00;98515.53;5066352;28;20144;-71
2023/04/12 01:35:07;;;;;;;11.93;10.68;;;;;;;10.37;100.00;98600.91;5051413;28;20028;-71
2023/04/12 01:37:34;;;;;;;13.45;10.63;;;;;;;10.33;100.00;98601.13;5050842;28;20499;-71
2023/04/12 01:40:00;;;;;;;12.23;10.77;;;;;;;10.16;100.00;98579.09;5050753;28;20044;-72
2023/04/12 01:42:26;;;;;;;11.27;10.10;;;;;;;10.37;100.00;98583.13;5051034;28;20029;-70
2023/04/12 01:44:51;;;;;;;12.52;10.82;;;;;;;10.40;100.00;98577.88;5050414;28;20454;-71
2023/04/12 01:47:17;;;;;;;12.35;10.43;;;;;;;9.84;100.00;98485.06;5051109;28;20029;-71
2023/04/12 01:49:55;;;;;;;12.05;10.65;;;;;;;9.59;100.00;98444.84;5031527;28;20033;-72
2023/04/12 01:52:23;;;;;;;14.88;11.98;;;;;;;9.86;100.00;98489.19;5050969;28;20021;-71
2023/04/12 01:54:53;;;;;;;12.20;10.90;;;;;;;9.81;100.00;98483.50;5032761;28;20060;-71
2023/04/12 01:57:20;;;;;;;12.45;10.68;;;;;;;10.30;100.00;98581.78;5050456;28;20051;-71
2023/04/12 01:59:47;;;;;;;11.57;10.38;;;;;;;10.11;100.00;98520.09;5032804;28;20465;-71
2023/04/12 02:02:13;;;;;;;11.98;10.70;;;;;;;10.34;100.00;98583.25;5051092;28;20028;-72
2023/04/12 02:04:41;;;;;;;12.07;10.77;;;;;;;10.39;100.00;98591.50;5050402;28;20032;-71
2023/04/12 02:07:08;;;;;;;12.75;10.35;;;;;;;10.02;100.00;98512.09;5065685;28;20029;-71
2023/04/12 02:09:37;;;;;;;12.40;10.85;;;;;;;10.40;100.00;98561.81;5032435;28;20032;-72
2023/04/12 02:12:03;;;;;;;12.65;10.85;;;;;;;10.46;100.00;98590.28;5050373;28;20025;-71
2023/04/12 02:14:30;;;;;;;15.00;11.80;;;;;;;10.45;100.00;98586.09;5050477;28;20083;-70
2023/04/12 02:16:57;;;;;;;14.30;11.75;;;;;;;10.30;100.00;98583.50;5032205;28;20120;-71
2023/04/12 02:19:23;;;;;;;12.80;11.27;;;;;;;10.07;100.00;98523.66;5052245;28;20059;-71
2023/04/12 02:21:49;;;;;;;16.30;12.90;;;;;;;10.37;100.00;98592.47;5032430;28;20021;-71
2023/04/12 02:24:15;;;;;;;12.27;10.98;;;;;;;10.40;100.00;98608.34;5032960;28;20039;-71
2023/04/12 02:26:40;;;;;;;12.18;10.77;;;;;;;9.46;100.00;98431.97;5050252;28;20029;-71
2023/04/12 02:29:09;;;;;;;12.23;10.40;;;;;;;10.56;100.00;98593.16;5051002;28;20037;-70
2023/04/12 02:31:37;;;;;;;13.52;10.80;;;;;;;10.02;100.00;98532.41;5049670;28;20862;-70
2023/04/12 02:34:03;;;;;;;13.40;10.77;;;;;;;10.06;100.00;98546.59;5050779;28;20028;-71
2023/04/12 02:36:29;;;;;;;10.80;9.32;;;;;;;10.60;100.00;98609.91;5049311;28;20033;-71
2023/04/12 02:38:55;;;;;;;13.20;10.25;;;;;;;10.61;100.00;98603.09;5050760;28;20036;-71
2023/04/12 02:41:21;;;;;;;12.23;9.98;;;;;;;10.57;100.00;98614.31;5049979;28;20029;-70
2023/04/12 02:43:47;;;;;;;12.18;10.40;;;;;;;10.41;100.00;98594.78;5050601;28;20108;-71
2023/04/12 02:46:22;;;;;;;12.52;10.48;;;;;;;10.19;100.00;98555.25;5050282;28;20163;-72
2023/04/12 02:48:49;;;;;;;13.07;10.25;;;;;;;10.62;100.00;98647.97;5035546;28;20029;-71
2023/04/12 02:51:23;;;;;;;13.45;10.65;;;;;;;10.21;100.00;98581.41;5050901;28;20032;-70
2023/04/12 02:53:49;;;;;;;14.73;11.07;;;;;;;10.02;100.00;98566.19;5049562;28;20036;-71
2023/04/12 02:56:17;;;;;;;12.52;10.50;;;;;;;10.47;100.00;98619.03;5049620;28;20053;-71
2023/04/12 02:58:43;;;;;;;13.95;11.20;;;;;;;10.25;100.00;98604.03;5050514;28;20117;-71
2023/04/12 03:01:11;;;;;;;12.70;10.48;;;;;;;10.56;100.00;98635.56;5053478;28;20120;-72
2023/04/12 03:03:37;;;;;;;13.40;11.30;;;;;;;10.61;100.00;98634.44;5054002;28;20029;-72
2023/04/12 03:06:03;;;;;;;13.80;11.43;;;;;;;10.13;100.00;98570.78;5053821;28;20116;-71
2023/04/12 03:08:29;;;;;;;13.38;11.10;;;;;;;10.43;100.00;98615.84;5035453;28;20396;-71
2023/04/12 03:10:55;;;;;;;12.45;10.70;;;;;;;10.39;100.00;98611.81;5054086;28;20482;-71
2023/04/12 03:13:20;;;;;;;13.68;11.43;;;;;;;10.54;100.00;98643.25;5038812;28;20040;-73
2023/04/12 03:15:47;;;;;;;11.60;10.40;;;;;;;10.56;100.00;98633.03;5034119;28;20026;-71
2023/04/12 03:18:12;;;;;;;13.80;10.85;;;;;;;10.50;100.00;98607.91;5033898;28;20458;-71
2023/04/12 03:20:43;;;;;;;11.30;10.10;;;;;;;10.13;100.00;98530.19;5033340;28;20037;-71
2023/04/12 03:23:09;;;;;;;11.05;9.85;;;;;;;10.47;100.00;98588.56;5016211;28;20037;-71
2023/04/12 03:25:35;;;;;;;13.18;10.43;;;;;;;10.37;100.00;98572.97;5015755;28;20021;-71
2023/04/12 03:28:01;;;;;;;11.82;10.18;;;;;;;10.12;100.00;98529.34;5033889;28;20029;-71
2023/04/12 03:30:27;;;;;;;11.40;9.65;;;;;;;10.47;100.00;98588.56;5034933;28;20084;-71
2023/04/12 03:32:52;;;;;;;12.65;9.68;;;;;;;9.91;100.00;98489.78;5018877;28;20025;-71
2023/04/12 03:35:18;;;;;;;10.65;9.25;;;;;;;10.60;100.00;98566.72;5033159;28;20484;-72
2023/04/12 03:37:43;;;;;;;10.82;9.65;;;;;;;10.73;100.00;98626.19;5033930;28;20033;-71
2023/04/12 03:40:09;;;;;;;12.52;10.00;;;;;;;10.37;100.00;98587.38;5032674;28;20029;-72
2023/04/12 03:42:35;;;;;;;10.70;9.27;;;;;;;10.59;100.00;98635.41;5032463;28;20500;-71
2023/04/12 03:45:01;;;;;;;13.82;10.13;;;;;;;10.41;100.00;98577.00;5045746;28;20040;-70
2023/04/12 03:47:26;;;;;;;11.77;9.18;;;;;;;10.19;100.00;98557.81;5031390;28;20087;-71
2023/04/12 03:49:54;;;;;;;10.95;9.45;;;;;;;10.07;100.00;98564.28;5032947;28;20029;-71
2023/04/12 03:52:19;;;;;;;12.27;10.20;;;;;;;10.23;100.00;98603.28;5031875;28;20086;-70
2023/04/12 03:54:45;;;;;;;11.70;10.23;;;;;;;10.46;100.00;98647.88;5015151;28;20488;-71
2023/04/12 03:57:10;;;;;;;12.32;9.43;;;;;;;10.42;100.00;98643.84;5032721;28;20061;-72
2023/04/12 03:59:36;;;;;;;12.93;9.95;;;;;;;10.19;100.00;98584.03;5032340;28;20443;-72
2023/04/12 04:02:01;;;;;;;11.07;9.85;;;;;;;10.20;100.00;98580.56;5033262;28;20407;-72
2023/04/12 04:04:27;;;;;;;11.95;10.10;;;;;;;10.41;100.00;98634.59;5032807;28;20029;-71
2023/04/12 04:06:53;;;;;;;15.75;11.13;;;;;;;10.09;100.00;98579.44;5032569;28;20061;-72
2023/04/12 04:09:18;;;;;;;14.15;10.90;;;;;;;10.37;100.00;98654.25;5015651;28;20044;-71
2023/04/12 04:11:44;;;;;;;14.52;10.80;;;;;;;10.46;100.00;98646.16;5030523;28;20034;-71
2023/04/12 04:14:10;;;;;;;13.52;10.63;;;;;;;10.46;100.00;98641.09;5014776;28;20029;-72
2023/04/12 04:16:35;;;;;;;12.55;9.68;;;;;;;10.60;100.00;98640.41;5030691;28;20033;-70
2023/04/12 04:19:01;;;;;;;13.65;10.07;;;;;;;10.63;100.00;98662.31;5014497;28;20176;-70
2023/04/12 04:21:29;;;;;;;10.73;9.20;;;;;;;10.60;100.00;98647.22;5031739;28;20079;-71
2023/04/12 04:23:57;;;;;;;9.65;8.65;;;;;;;10.54;100.00;98594.97;5038469;28;20037;-72
2023/04/12 04:26:30;;;;;;;9.82;8.13;;;;;;;10.28;100.00;98575.94;5050540;28;20167;-72
2023/04/12 04:28:55;;;;;;;9.70;8.77;;;;;;;10.63;100.00;98636.88;5021717;28;20435;-71
2023/04/12 04:31:21;;;;;;;11.13;8.75;;;;;;;10.38;100.00;98589.84;5052488;28;20033;-73
2023/04/12 04:33:46;;;;;;;13.15;10.00;;;;;;;10.36;100.00;98596.69;5033975;28;20064;-71
2023/04/12 04:36:12;;;;;;;11.70;9.80;;;;;;;10.50;100.00;98605.38;5051706;28;20473;-71
2023/04/12 04:38:39;;;;;;;12.55;9.75;;;;;;;10.81;100.00;98652.06;5034224;28;20037;-70
2023/04/12 04:41:04;;;;;;;10.82;9.60;;;;;;;10.45;100.00;98611.50;5057458;28;20438;-70
2023/04/12 04:43:30;;;;;;;15.75;11.50;;;;;;;10.48;100.00;98630.03;5033687;28;20036;-72
2023/04/12 04:45:56;;;;;;;25.15;16.30;;;;;;;10.45;100.00;98608.13;5043011;28;20025;-73
2023/04/12 04:48:23;;;;;;;20.40;12.60;;;;;;;11.10;100.00;98703.97;5037244;28;20122;-72
2023/04/12 04:50:50;;;;;;;16.98;12.90;;;;;;;11.26;100.00;98722.63;5054232;28;20064;-72
2023/04/12 04:53:18;;;;;;;17.50;11.95;;;;;;;11.15;100.00;98707.91;5051764;28;20021;-72
2023/04/12 04:55:43;;;;;;;14.02;12.23;;;;;;;10.96;100.00;98706.38;5051363;28;20052;-72
2023/04/12 04:58:09;;;;;;;18.23;12.68;;;;;;;11.09;100.00;98697.25;5033800;28;20116;-72
2023/04/12 05:00:35;;;;;;;19.67;15.57;;;;;;;10.70;100.00;98653.47;5051713;28;20438;-73
2023/04/12 05:03:01;;;;;;;17.38;12.43;;;;;;;11.12;100.00;98710.63;5051750;28;20037;-71
2023/04/12 05:05:27;;;;;;;17.17;12.32;;;;;;;11.04;100.00;98732.25;5051430;28;20037;-71
2023/04/12 05:07:54;;;;;;;18.92;13.48;;;;;;;10.92;100.00;98738.75;5033390;28;20037;-70
2023/04/12 05:10:20;;;;;;;21.75;13.63;;;;;;;11.04;100.00;98728.00;5051671;28;20064;-71
2023/04/12 05:12:45;;;;;;;26.52;14.73;;;;;;;10.75;100.00;98721.00;5033209;28;20467;-70
2023/04/12 05:15:10;;;;;;;20.75;13.65;;;;;;;10.82;100.00;98712.16;5051301;28;20032;-70
2023/04/12 05:17:36;;;;;;;16.27;12.48;;;;;;;11.09;100.00;98748.13;5051506;28;20044;-71
2023/04/12 05:20:05;;;;;;;15.88;13.90;;;;;;;11.22;100.00;98757.59;5051396;28;20032;-70
2023/04/12 05:22:31;;;;;;;16.52;13.32;;;;;;;11.17;100.00;98766.34;5033236;28;20037;-70
2023/04/12 05:25:00;;;;;;;15.18;12.15;;;;;;;11.22;100.00;98736.41;5051419;28;20457;-72
2023/04/12 05:27:26;;;;;;;22.15;15.68;;;;;;;11.34;100.00;98745.97;5051801;28;20087;-72
2023/04/12 05:29:52;;;;;;;17.48;14.52;;;;;;;11.39;100.00;98733.81;5033754;28;20063;-71
2023/04/12 05:32:18;;;;;;;16.67;12.88;;;;;;;11.34;100.00;98756.97;5051337;28;20033;-71
2023/04/12 05:34:43;;;;;;;15.07;10.20;;;;;;;11.49;100.00;98770.63;5051004;28;20110;-72
2023/04/12 05:37:09;;;;;;;15.23;10.80;;;;;;;11.30;100.00;98734.31;5050967;28;20025;-71
2023/04/12 05:39:34;;;;;;;14.05;10.52;;;;;;;11.49;100.00;98792.72;5050894;28;20037;-71
2023/04/12 05:41:59;;;;;;;13.48;11.45;;;;;;;11.51;100.00;98799.34;5051105;28;20117;-70
2023/04/12 05:44:27;;;;;;;36.28;26.33;;;;;;;11.12;100.00;98738.59;5050806;28;20025;-70
2023/04/12 05:46:52;;;;;;;24.20;17.05;;;;;;;10.69;100.00;98726.38;5033004;28;20028;-72
2023/04/12 05:49:18;;;;;;;17.13;14.75;;;;;;;11.37;100.00;98791.59;5050434;28;20035;-71
2023/04/12 05:51:43;;;;;;;17.20;13.52;;;;;;;11.47;100.00;98804.69;5033249;28;20029;-69
2023/04/12 05:54:09;;;;;;;14.75;12.20;;;;;;;11.59;100.00;98799.00;5050713;28;20037;-71
2023/04/12 05:56:36;;;;;;;11.60;9.00;;;;;;;11.33;100.00;98737.50;5050763;28;20134;-70
2023/04/12 05:59:03;;;;;;;11.50;9.30;;;;;;;10.92;100.00;98677.75;5032635;28;20032;-70
2023/04/12 06:01:30;;;;;;;9.60;8.25;;;;;;;11.21;100.00;98740.66;5050813;28;20029;-71
2023/04/12 06:03:56;;;;;;;9.68;7.60;;;;;;;10.98;100.00;98700.31;5051017;28;20064;-71
2023/04/12 06:06:21;;;;;;;7.90;6.57;;;;;;;11.70;100.00;98830.66;5032712;28;20025;-70
2023/04/12 06:08:46;;;;;;;8.88;7.22;;;;;;;11.38;100.00;98793.25;5050298;28;20415;-70
2023/04/12 06:11:12;;;;;;;7.88;6.75;;;;;;;11.23;100.00;98782.13;5050747;28;20063;-70
2023/04/12 06:13:38;;;;;;;9.38;6.78;;;;;;;11.72;100.00;98871.31;5050393;28;20115;-70
2023/04/12 06:16:04;;;;;;;8.63;6.30;;;;;;;11.15;100.00;98786.75;5050712;28;20082;-70
2023/04/12 06:18:30;;;;;;;10.65;6.20;;;;;;;11.67;100.00;98863.91;5050038;28;20036;-71
2023/04/12 06:20:56;;;;;;;8.80;6.10;;;;;;;11.69;100.00;98882.47;5032708;28;20036;-70
2023/04/12 06:23:21;;;;;;;8.50;6.15;;;;;;;10.88;100.00;98752.53;5050072;28;20044;-70
2023/04/12 06:25:47;;;;;;;7.68;6.63;;;;;;;11.48;100.00;98836.88;5050998;28;20115;-72
2023/04/12 06:28:13;;;;;;;10.80;7.68;;;;;;;11.82;100.00;98895.41;5032270;28;20052;-72
2023/04/12 06:30:38;;;;;;;9.57;7.55;;;;;;;11.76;100.00;98885.53;5050715;28;20021;-71
2023/04/12 06:33:04;;;;;;;10.52;7.97;;;;;;;11.51;100.00;98832.44;5049942;28;20047;-71
2023/04/12 06:35:29;;;;;;;12.35;7.68;;;;;;;11.64;100.00;98858.94;5034406;28;20501;-72
2023/04/12 06:37:55;;;;;;;9.40;7.60;;;;;;;11.50;100.00;98838.44;5054028;28;20027;-71
2023/04/12 06:40:20;;;;;;;9.43;7.10;;;;;;;11.69;100.00;98858.72;5054410;28;20029;-71
2023/04/12 06:42:45;;;;;;;8.85;7.95;;;;;;;11.88;100.00;98884.91;5036782;28;20479;-71
2023/04/12 06:45:11;;;;;;;8.43;7.25;;;;;;;12.01;100.00;98891.00;5054161;28;20029;-71
2023/04/12 06:47:36;;;;;;;8.38;6.75;;;;;;;11.59;100.00;98804.88;5052869;28;20032;-70
2023/04/12 06:50:02;;;;;;;8.32;7.43;;;;;;;12.08;100.00;98884.72;5054335;28;20025;-71
2023/04/12 06:52:28;;;;;;;8.70;7.80;;;;;;;11.71;100.00;98831.47;5054675;28;20033;-70
2023/04/12 06:54:55;;;;;;;10.10;9.00;;;;;;;11.74;100.00;98834.69;5053917;28;20031;-71
2023/04/12 06:57:20;;;;;;;11.02;9.18;;;;;;;11.61;100.00;98810.72;5054352;28;20529;-70
2023/04/12 06:59:46;;;;;;;12.15;9.65;;;;;;;11.80;100.00;98842.03;5053572;28;20037;-70
2023/04/12 07:02:11;;;;;;;10.50;9.25;;;;;;;11.78;100.00;98843.00;5053912;28;20044;-70
2023/04/12 07:04:37;;;;;;;9.75;8.32;;;;;;;12.17;100.00;98915.63;5054326;28;20033;-71
2023/04/12 07:07:02;;;;;;;10.68;9.25;;;;;;;12.24;100.00;98911.03;5054049;28;20025;-70
2023/04/12 07:09:31;;;;;;;10.75;9.07;;;;;;;11.47;100.00;98797.88;5053594;28;20037;-71
2023/04/12 07:11:57;;;;;;;11.88;9.55;;;;;;;11.87;100.00;98857.78;5054181;28;20027;-70
2023/04/12 07:14:22;;;;;;;12.90;11.43;;;;;;;11.92;100.00;98836.28;5035541;28;20116;-70
2023/04/12 07:16:47;;;;;;;13.85;10.10;;;;;;;12.43;100.00;98928.75;5053268;28;20064;-71
2023/04/12 07:19:13;;;;;;;11.73;10.07;;;;;;;12.50;100.00;98902.84;5035536;28;20036;-70
2023/04/12 07:21:38;;;;;;;12.82;9.98;;;;;;;12.14;100.00;98844.44;5053487;28;20063;-70
2023/04/12 07:24:04;;;;;;;13.13;10.18;;;;;;;12.64;100.00;98897.00;5053576;28;20745;-72
2023/04/12 07:26:30;;;;;;;11.15;9.68;;;;;;;12.62;100.00;98902.19;5053735;28;20033;-69
2023/04/12 07:28:55;;;;;;;9.73;8.73;;;;;;;12.82;100.00;98896.00;5053316;28;20025;-70
2023/04/12 07:31:22;;;;;;;10.07;9.00;;;;;;;12.76;100.00;98914.19;5035342;28;20487;-70
2023/04/12 07:33:48;;;;;;;12.68;7.97;;;;;;;12.90;100.00;98924.47;5053618;28;20033;-70
2023/04/12 07:36:15;;;;;;;12.10;9.32;;;;;;;12.52;100.00;98859.44;5053417;28;20051;-70
2023/04/12 07:38:41;;;;;;;11.27;9.77;;;;;;;12.99;100.00;98935.00;5053593;28;20032;-70
2023/04/12 07:41:06;;;;;;;15.23;10.88;;;;;;;13.04;100.00;98937.34;5053568;28;20028;-71
2023/04/12 07:43:32;;;;;;;14.13;9.50;;;;;;;13.16;100.00;98962.19;5051230;28;20033;-72
2023/04/12 07:45:58;;;;;;;10.25;9.18;;;;;;;12.61;100.00;98872.50;5052783;28;20029;-70
2023/04/12 07:48:23;;;;;;;12.05;10.00;;;;;;;12.70;100.00;98873.72;5052995;28;20037;-70
2023/04/12 07:50:50;;;;;;;14.02;8.70;;;;;;;13.21;100.00;98972.94;5053494;28;20063;-70
2023/04/12 07:53:23;;;;;;;10.73;8.95;;;;;;;13.21;100.00;98970.41;5053244;28;20074;-71
2023/04/12 07:55:49;;;;;;;12.43;9.02;;;;;;;12.68;100.00;98890.84;5052792;28;20410;-71
2023/04/12 07:58:16;;;;;;;9.48;8.48;;;;;;;13.17;100.00;98956.19;5053206;28;20040;-71
2023/04/12 08:00:45;;;;;;;11.13;8.65;;;;;;;13.01;100.00;98891.56;5053168;28;20025;-71
2023/04/12 08:03:12;;;;;;;11.40;8.93;;;;;;;13.45;100.00;98963.16;5052853;28;20028;-70
2023/04/12 08:05:37;;;;;;;10.82;9.40;;;;;;;13.38;100.00;98983.06;5052964;28;20136;-70
2023/04/12 08:08:03;;;;;;;10.48;9.38;;;;;;;13.26;100.00;98932.69;5052699;28;20033;-70
2023/04/12 08:10:30;;;;;;;10.80;8.98;;;;;;;13.60;100.00;98977.59;5052754;28;20025;-73
2023/04/12 08:12:56;;;;;;;11.57;9.15;;;;;;;13.55;100.00;98974.47;5034812;28;20033;-70
2023/04/12 08:15:21;;;;;;;10.68;8.13;;;;;;;13.54;100.00;98976.22;5052653;28;20036;-69
2023/04/12 08:17:47;;;;;;;9.02;7.82;;;;;;;13.77;100.00;99001.25;5051410;28;20123;-70
2023/04/12 08:20:14;;;;;;;12.00;9.52;;;;;;;13.90;100.00;98996.28;5034883;28;20111;-70
2023/04/12 08:22:41;;;;;;;13.50;10.07;;;;;;;13.42;100.00;98930.94;5034862;28;20475;-70
2023/04/12 08:25:07;;;;;;;11.00;9.10;;;;;;;13.78;100.00;98982.50;5051308;28;20408;-70
2023/04/12 08:27:33;;;;;;;12.82;8.90;;;;;;;13.92;100.00;98995.28;5052025;28;20033;-73
2023/04/12 08:29:58;;;;;;;11.82;8.65;;;;;;;13.87;100.00;99007.50;5051176;28;20091;-70
2023/04/12 08:32:24;;;;;;;11.90;8.88;;;;;;;13.83;100.00;98984.75;5034418;28;20036;-70
2023/04/12 08:34:50;;;;;;;10.45;9.05;;;;;;;13.72;100.00;99017.78;5052232;28;20458;-72
2023/04/12 08:37:16;;;;;;;10.77;8.48;;;;;;;13.78;100.00;99022.53;5052052;28;20028;-71
2023/04/12 08:39:42;;;;;;;12.65;8.15;;;;;;;13.79;100.00;99007.09;5034294;28;20033;-73
2023/04/12 08:42:07;;;;;;;13.63;8.93;;;;;;;13.56;100.00;98979.50;5052686;28;20033;-71
2023/04/12 08:44:35;;;;;;;10.25;6.75;;;;;;;13.64;100.00;99037.81;5050383;28;20481;-70
2023/04/12 08:47:03;;;;;;;9.38;6.90;;;;;;;13.59;100.00;99040.59;5051998;28;20116;-71
2023/04/12 08:49:31;;;;;;;7.05;6.05;;;;;;;13.59;100.00;99047.44;5052177;28;20506;-71
2023/04/12 08:52:01;;;;;;;8.85;6.60;;;;;;;13.60;100.00;99038.88;5052372;28;20032;-71
2023/04/12 08:54:27;;;;;;;9.48;6.80;;;;;;;13.32;100.00;98992.78;5033915;28;20550;-71
2023/04/12 08:56:57;;;;;;;7.97;5.97;;;;;;;13.65;100.00;99050.47;5051452;28;20536;-71
2023/04/12 08:59:26;;;;;;;7.93;6.50;;;;;;;13.27;100.00;98995.59;5051698;28;20025;-71
2023/04/12 09:01:54;;;;;;;8.45;6.63;;;;;;;13.52;100.00;99059.75;5052337;28;20017;-70
2023/04/12 09:04:19;;;;;;;7.85;5.60;;;;;;;13.07;100.00;98992.50;5051988;28;20025;-70
2023/04/12 09:06:45;;;;;;;6.95;5.47;;;;;;;13.03;100.00;99007.13;5052256;28;20526;-71
2023/04/12 09:09:10;;;;;;;8.00;5.28;;;;;;;12.98;100.00;99024.38;5051769;28;20539;-71
2023/04/12 09:11:36;;;;;;;6.15;5.18;;;;;;;12.93;100.00;99036.56;5051680;28;20025;-70
2023/04/12 09:14:01;;;;;;;5.97;4.78;;;;;;;12.76;100.00;99031.50;5051534;28;20033;-70
2023/04/12 09:16:35;;;;;;;7.47;5.00;;;;;;;13.13;100.00;99084.84;5033751;28;20025;-73
2023/04/12 09:19:02;;;;;;;8.82;4.97;;;;;;;13.07;100.00;99092.00;5051438;28;20560;-71
2023/04/12 09:21:27;;;;;;;6.07;4.50;;;;;;;13.04;100.00;99108.28;5051789;28;20071;-72
2023/04/12 09:24:12;;;;;;;6.15;4.07;;;;;;;12.72;100.00;99071.66;5051494;28;20798;-72
2023/04/12 09:26:37;;;;;;;6.35;3.80;;;;;;;12.50;100.00;99029.50;4335940;28;10000879;-70
2023/04/12 09:29:04;;;;;;;6.55;3.88;;;;;;;12.19;100.00;98986.88;5047476;28;20120;-70
2023/04/12 09:31:30;;;;;;;7.03;3.90;;;;;;;12.48;100.00;99028.75;5047762;28;20187;-69
2023/04/12 09:34:09;;;;;;;10.90;6.50;;;;;;;13.15;100.00;99110.28;5029477;28;20111;-70
2023/04/12 09:36:39;;;;;;;5.45;3.95;;;;;;;12.88;100.00;99057.22;5027977;28;20037;-72
2023/04/12 09:39:05;;;;;;;8.40;5.60;;;;;;;12.47;100.00;99002.44;5045446;28;20613;-71
2023/04/12 09:41:31;;;;;;;7.20;5.82;;;;;;;13.52;100.00;99113.38;5046276;28;20036;-71
2023/04/12 09:44:09;;;;;;;9.73;5.70;;;;;;;12.97;100.00;99048.25;5032618;28;20576;-70
2023/04/12 09:46:35;;;;;;;11.55;6.15;;;;;;;13.38;100.00;99095.41;5048482;28;20041;-71
2023/04/12 09:49:02;;;;;;;6.28;3.60;;;;;;;13.41;100.00;99096.97;5031792;28;20053;-71
2023/04/12 09:51:32;;;;;;;5.65;3.65;;;;;;;13.80;100.00;99128.84;5032384;28;20131;-71
2023/04/12 09:54:02;;;;;;;8.27;4.68;;;;;;;13.94;100.00;99143.41;5033016;28;20071;-71
2023/04/12 09:56:30;;;;;;;11.05;4.60;;;;;;;13.88;100.00;99070.44;5031439;28;20480;-71
2023/04/12 09:59:01;;;;;;;6.22;4.55;;;;;;;14.19;100.00;99078.94;5045510;28;20045;-70
2023/04/12 10:01:33;;;;;;;7.53;4.25;;;;;;;14.45;100.00;99055.28;5031657;28;20128;-70
2023/04/12 10:03:59;;;;;;;8.23;3.90;;;;;;;14.80;100.00;99078.81;5029886;28;20460;-70
2023/04/12 10:06:26;;;;;;;4.78;3.30;;;;;;;14.97;100.00;99125.50;5031216;28;20025;-69
2023/04/12 10:08:53;;;;;;;4.10;3.65;;;;;;;15.31;100.00;99143.03;5030855;28;20450;-70
2023/04/12 10:11:18;;;;;;;5.82;3.00;;;;;;;15.06;100.00;99158.22;5030376;28;20090;-70
2023/04/12 10:13:45;;;;;;;6.20;2.75;;;;;;;15.36;100.00;99132.53;5029318;28;20037;-70
2023/04/12 10:16:13;;;;;;;4.75;3.05;;;;;;;15.61;100.00;99143.75;5029554;28;20033;-70
2023/04/12 10:18:38;;;;;;;4.90;2.97;;;;;;;16.58;100.00;99218.84;5030595;28;20051;-71
2023/04/12 10:21:04;;;;;;;4.90;2.80;;;;;;;15.77;100.00;99258.16;5012899;28;20389;-69
2023/04/12 10:23:33;;;;;;;5.60;2.90;;;;;;;15.81;100.00;99232.22;5031154;28;20033;-69
2023/04/12 10:26:03;;;;;;;5.25;2.83;;;;;;;15.57;100.00;99224.28;5030943;28;20029;-70
2023/04/12 10:28:29;;;;;;;5.90;3.65;;;;;;;15.55;100.00;99258.59;5030607;28;20060;-69
2023/04/12 10:31:26;;;;;;;5.00;3.08;;;;;;;16.13;100.00;99314.88;5029707;28;20033;-69
2023/04/12 10:33:54;;;;;;;4.00;2.95;;;;;;;16.00;100.00;99286.59;5030980;28;20106;-69
2023/04/12 10:36:19;;;;;;;6.22;3.30;;;;;;;15.62;100.00;99318.81;5030963;28;20085;-70
2023/04/12 10:38:46;;;;;;;3.38;2.80;;;;;;;15.60;100.00;99285.63;5031091;28;20475;-69
2023/04/12 10:41:16;;;;;;;3.17;2.70;;;;;;;15.18;100.00;99201.03;5030901;28;20033;-70
2023/04/12 10:43:46;;;;;;;5.22;2.42;;;;;;;15.41;100.00;99279.88;5030888;28;20539;-69
2023/04/12 10:46:37;;;;;;;4.28;2.88;;;;;;;16.32;100.00;99276.91;5030816;28;20411;-70
2023/04/12 10:49:17;;;;;;;4.95;2.25;;;;;;;15.97;100.00;99280.81;5029110;28;20453;-74
2023/04/12 10:52:10;;;;;;;7.57;2.33;;;;;;;15.16;100.00;99250.69;5013290;28;20034;-70
2023/04/12 10:54:36;;;;;;;4.15;2.88;;;;;;;15.89;100.00;99224.06;5025938;28;20037;-70
2023/04/12 10:57:03;;;;;;;3.85;2.83;;;;;;;16.32;100.00;99267.44;5030057;28;20167;-69
2023/04/12 11:00:01;;;;;;;5.15;2.50;;;;;;;15.52;100.00;99282.69;5030035;28;20365;-70
2023/04/12 11:02:26;;;;;;;5.60;2.50;;;;;;;15.28;100.00;99266.16;5008015;28;20046;-70
2023/04/12 11:05:09;;;;;;;5.00;3.30;;;;;;;14.89;100.00;99208.78;5029828;28;20030;-71
2023/04/12 11:07:39;;;;;;;4.07;2.72;;;;;;;14.86;100.00;99230.25;5030651;28;20033;-69
2023/04/12 11:10:13;;;;;;;2.70;2.50;;;;;;;14.92;100.00;99273.41;5030292;28;20400;-70
2023/04/12 11:12:39;;;;;;;3.55;2.90;;;;;;;14.62;100.00;99226.50;5012946;28;20040;-70
2023/04/12 11:15:05;;;;;;;5.72;2.90;;;;;;;14.78;100.00;99224.72;5030155;28;20499;-69
2023/04/12 11:17:31;;;;;;;7.10;3.47;;;;;;;14.91;100.00;99271.75;5029361;28;20034;-71
2023/04/12 11:19:59;;;;;;;5.50;3.17;;;;;;;14.60;100.00;99236.00;5029914;28;20029;-70